Time;durP1;ratioP1;P1;durP2;ratioP2;P2;SDS_P1;SDS_P2;PMS_P1;PMS_P2;Temp;Humidity;BMP_temperature;BMP_pressure;BME280_temperature;BME280_humidity;BME280_pressure;Samples;Min_cycle;Max_cycle;Signal;HPM_P1;HPM_P2
2022/05/21 00:00:55;;;;;;;5.45;2.33;;;21.60;99.90;;;;;;7390865;19;20618;-79
2022/05/21 00:03:21;;;;;;;3.55;1.98;;;21.50;99.90;;;;;;7390285;19;20158;-76
2022/05/21 00:05:47;;;;;;;2.70;2.10;;;21.60;99.90;;;;;;7392543;19;20144;-76
2022/05/21 00:08:13;;;;;;;3.95;2.33;;;21.40;99.90;;;;;;7394584;19;20127;-76
2022/05/21 00:10:39;;;;;;;2.28;2.05;;;21.30;99.90;;;;;;7392276;19;20548;-76
2022/05/21 00:13:06;;;;;;;4.65;2.30;;;21.40;99.90;;;;;;7390639;19;20512;-74
2022/05/21 00:15:34;;;;;;;2.05;1.80;;;21.40;99.90;;;;;;7393176;19;20151;-76
2022/05/21 00:18:00;;;;;;;2.38;2.10;;;21.30;99.90;;;;;;7391860;19;20151;-78
2022/05/21 00:23:12;;;;;;;1.80;1.58;;;21.10;99.90;;;;;;7389517;19;20236;-80
2022/05/21 00:25:38;;;;;;;2.28;1.90;;;21.20;99.90;;;;;;7390569;19;20137;-75
2022/05/21 00:28:04;;;;;;;2.33;1.60;;;21.30;99.90;;;;;;7391035;19;20582;-79
2022/05/21 00:30:32;;;;;;;1.92;1.60;;;21.40;99.90;;;;;;7394949;19;20580;-79
2022/05/21 00:32:59;;;;;;;2.33;2.00;;;21.30;99.90;;;;;;7392912;19;20134;-77
2022/05/21 00:35:24;;;;;;;2.03;1.42;;;21.30;99.90;;;;;;7389742;19;20150;-75
2022/05/21 00:37:50;;;;;;;2.00;1.75;;;21.20;99.90;;;;;;7389115;19;20154;-79
2022/05/21 00:40:16;;;;;;;2.55;1.58;;;21.30;99.90;;;;;;7391497;19;20138;-80
2022/05/21 00:42:44;;;;;;;2.03;1.60;;;21.10;99.90;;;;;;7388430;19;20122;-79
2022/05/21 00:45:12;;;;;;;3.22;1.67;;;21.20;99.90;;;;;;7391043;19;20126;-79
2022/05/21 00:47:38;;;;;;;2.50;1.60;;;21.20;99.90;;;;;;7388735;19;20170;-75
2022/05/21 00:50:06;;;;;;;2.80;1.70;;;21.20;99.90;;;;;;7389464;19;20618;-80
2022/05/21 00:52:34;;;;;;;2.90;1.50;;;21.00;99.90;;;;;;7389423;19;20171;-75
2022/05/21 00:55:11;;;;;;;2.35;1.40;;;21.10;99.90;;;;;;7392494;19;20141;-75
2022/05/21 00:57:42;;;;;;;4.20;2.38;;;21.10;99.90;;;;;;7390002;19;20138;-77
2022/05/21 01:00:14;;;;;;;1.63;1.30;;;21.10;99.90;;;;;;7389642;19;20142;-79
2022/05/21 01:02:47;;;;;;;2.67;1.50;;;21.10;99.90;;;;;;7280834;19;20367;-75
2022/05/21 01:05:18;;;;;;;1.85;1.45;;;20.80;99.90;;;;;;7388389;19;20154;-77
2022/05/21 01:07:46;;;;;;;4.47;1.55;;;20.80;99.90;;;;;;7393301;19;20150;-75
2022/05/21 01:10:15;;;;;;;3.70;1.42;;;20.60;99.90;;;;;;7389862;19;20147;-80
2022/05/21 01:12:45;;;;;;;1.50;1.40;;;20.60;99.90;;;;;;7391726;19;20564;-80
2022/05/21 01:15:16;;;;;;;1.52;1.40;;;20.70;99.90;;;;;;7389970;19;20617;-77
2022/05/21 01:17:43;;;;;;;2.92;1.50;;;20.70;99.90;;;;;;7387482;19;20167;-75
2022/05/21 01:20:16;;;;;;;2.00;1.25;;;20.60;99.90;;;;;;7388947;19;20218;-80
2022/05/21 01:22:50;;;;;;;2.10;1.48;;;20.60;99.90;;;;;;7390322;19;20152;-77
2022/05/21 01:25:24;;;;;;;1.98;1.40;;;20.70;99.90;;;;;;7397285;19;20139;-80
2022/05/21 01:27:52;;;;;;;1.90;1.30;;;20.60;99.90;;;;;;7390175;19;20174;-81
2022/05/21 01:30:29;;;;;;;1.90;1.33;;;20.70;99.90;;;;;;7386787;19;20151;-79
2022/05/21 01:32:55;;;;;;;3.05;1.40;;;20.60;99.90;;;;;;7389624;19;20123;-76
2022/05/21 01:35:21;;;;;;;1.83;1.45;;;20.60;99.90;;;;;;7390002;19;20190;-75
2022/05/21 01:37:48;;;;;;;3.03;1.65;;;20.50;99.90;;;;;;7384971;19;20609;-81
2022/05/21 01:40:17;;;;;;;1.20;1.10;;;20.30;99.90;;;;;;7390610;19;20151;-80
2022/05/21 01:42:43;;;;;;;1.65;1.00;;;20.20;99.90;;;;;;7394000;19;20151;-76
2022/05/21 01:45:10;;;;;;;2.40;1.20;;;20.30;99.90;;;;;;7387835;19;20135;-81
2022/05/21 01:47:41;;;;;;;1.70;1.60;;;20.30;99.90;;;;;;7389642;19;20461;-81
2022/05/21 01:50:08;;;;;;;2.38;1.25;;;20.10;99.90;;;;;;7386221;19;20145;-74
2022/05/21 01:52:33;;;;;;;1.27;1.17;;;20.30;99.90;;;;;;7386568;19;20160;-78
2022/05/21 01:54:59;;;;;;;1.40;1.30;;;20.10;99.90;;;;;;7390699;19;20500;-79
2022/05/21 01:57:25;;;;;;;1.95;1.20;;;20.20;99.90;;;;;;7387482;19;20135;-80
2022/05/21 01:59:51;;;;;;;2.53;1.30;;;20.30;99.90;;;;;;7389983;19;20151;-75
2022/05/21 02:02:18;;;;;;;1.38;1.13;;;20.30;99.90;;;;;;7390118;19;20148;-76
2022/05/21 02:04:43;;;;;;;2.80;1.30;;;20.20;99.90;;;;;;7389815;19;20150;-80
2022/05/21 02:07:09;;;;;;;1.30;1.15;;;20.30;99.90;;;;;;7386267;19;20148;-80
2022/05/21 02:09:35;;;;;;;3.80;1.40;;;20.20;99.90;;;;;;7388208;19;20506;-82
2022/05/21 02:12:01;;;;;;;3.17;1.38;;;20.20;99.90;;;;;;7390378;19;20151;-81
2022/05/21 02:14:27;;;;;;;1.88;1.40;;;20.20;99.90;;;;;;7396024;19;20126;-81
2022/05/21 02:16:53;;;;;;;2.58;1.10;;;20.10;99.90;;;;;;7394790;19;20134;-76
2022/05/21 02:19:18;;;;;;;3.90;1.20;;;19.90;99.90;;;;;;7395592;19;20150;-76
2022/05/21 02:21:44;;;;;;;1.63;1.30;;;19.80;99.90;;;;;;7393375;19;20134;-80
2022/05/21 02:24:10;;;;;;;1.48;1.30;;;19.90;99.90;;;;;;7391956;19;20171;-76
2022/05/21 02:26:38;;;;;;;2.47;1.73;;;20.00;99.90;;;;;;7392396;19;20130;-81
2022/05/21 02:29:05;;;;;;;2.28;1.30;;;19.90;99.90;;;;;;7399416;19;20151;-81
2022/05/21 02:31:31;;;;;;;2.03;1.50;;;19.80;99.90;;;;;;7393726;19;20147;-75
2022/05/21 02:33:57;;;;;;;1.80;1.42;;;19.60;99.90;;;;;;7394061;19;20127;-75
2022/05/21 02:39:25;;;;;;;2.05;1.42;;;19.60;99.90;;;;;;7396048;19;20572;-76
2022/05/21 02:41:54;;;;;;;1.85;1.45;;;19.50;99.90;;;;;;7395998;19;20475;-75
2022/05/21 02:44:20;;;;;;;1.50;1.40;;;19.50;99.90;;;;;;7391900;19;20547;-75
2022/05/21 02:46:46;;;;;;;2.58;1.35;;;19.40;99.90;;;;;;7396659;19;20149;-76
2022/05/21 02:49:12;;;;;;;6.00;1.85;;;19.40;99.90;;;;;;7394498;19;20130;-75
2022/05/21 02:51:38;;;;;;;2.28;1.48;;;19.40;99.90;;;;;;7396169;19;20127;-74
2022/05/21 02:54:05;;;;;;;2.13;1.52;;;19.40;99.90;;;;;;7394396;19;20203;-75
2022/05/21 02:56:31;;;;;;;2.55;1.50;;;19.30;99.90;;;;;;7393252;19;20158;-79
2022/05/21 02:58:57;;;;;;;2.00;1.52;;;19.30;99.90;;;;;;7391236;19;20629;-80
2022/05/21 03:01:23;;;;;;;2.67;1.67;;;19.10;99.90;;;;;;7393473;19;20138;-76
2022/05/21 03:03:49;;;;;;;3.72;1.67;;;19.20;99.90;;;;;;7390089;19;20243;-78
2022/05/21 03:06:14;;;;;;;2.28;1.50;;;19.30;99.90;;;;;;7391486;19;20155;-80
2022/05/21 03:11:24;;;;;;;2.85;1.50;;;19.10;99.90;;;;;;7399055;19;20134;-75
2022/05/21 03:13:50;;;;;;;3.88;1.70;;;19.20;99.90;;;;;;7391734;19;20142;-80
2022/05/21 03:16:16;;;;;;;2.40;1.90;;;19.00;99.90;;;;;;7391494;19;20139;-75
2022/05/21 03:18:41;;;;;;;3.88;1.92;;;19.00;99.90;;;;;;7391357;19;20151;-75
2022/05/21 03:21:07;;;;;;;1.65;1.23;;;18.90;99.90;;;;;;7391814;19;20146;-80
2022/05/21 03:23:33;;;;;;;1.92;1.70;;;18.90;99.90;;;;;;7387981;19;20142;-76
2022/05/21 03:25:59;;;;;;;1.70;1.60;;;18.80;99.90;;;;;;7390941;19;20157;-76
2022/05/21 03:28:25;;;;;;;2.22;1.75;;;18.80;99.90;;;;;;7391059;19;20892;-76
2022/05/21 03:30:51;;;;;;;2.30;1.67;;;18.70;99.90;;;;;;7392536;19;20466;-76
2022/05/21 03:33:17;;;;;;;3.90;1.75;;;18.80;99.90;;;;;;7394009;19;20161;-75
2022/05/21 03:35:43;;;;;;;2.00;1.55;;;18.80;99.90;;;;;;7390977;19;20138;-80
2022/05/21 03:38:09;;;;;;;1.55;1.45;;;18.80;99.90;;;;;;7389337;19;20489;-80
2022/05/21 03:40:35;;;;;;;2.63;2.00;;;18.80;99.90;;;;;;7390090;19;20142;-77
2022/05/21 03:43:01;;;;;;;1.92;1.60;;;18.70;99.90;;;;;;7392295;19;20174;-75
2022/05/21 03:45:27;;;;;;;2.83;1.70;;;18.90;99.90;;;;;;7394826;19;20485;-75
2022/05/21 03:47:53;;;;;;;2.30;1.63;;;18.70;99.90;;;;;;7393631;19;20150;-80
2022/05/21 03:50:22;;;;;;;2.00;1.48;;;18.50;99.90;;;;;;7395431;19;20172;-80
2022/05/21 03:52:48;;;;;;;1.50;1.27;;;18.50;99.90;;;;;;7390194;19;20157;-80
2022/05/21 03:55:15;;;;;;;1.90;1.67;;;18.50;99.90;;;;;;7390028;19;20130;-78
2022/05/21 03:57:40;;;;;;;1.80;1.50;;;18.60;99.90;;;;;;7389172;19;20243;-79
2022/05/21 04:00:10;;;;;;;1.70;1.50;;;18.60;99.90;;;;;;7391715;19;20613;-74
2022/05/21 04:02:37;;;;;;;1.70;1.60;;;18.50;99.90;;;;;;7392832;19;20147;-74
2022/05/21 04:05:04;;;;;;;2.53;1.98;;;18.50;99.90;;;;;;7390069;19;20150;-75
2022/05/21 04:07:30;;;;;;;1.90;1.60;;;18.50;99.90;;;;;;7389332;19;20156;-77
2022/05/21 04:09:56;;;;;;;2.50;1.60;;;18.50;99.90;;;;;;7391456;19;20140;-79
2022/05/21 04:12:23;;;;;;;3.15;1.80;;;18.50;99.90;;;;;;7391578;19;20243;-74
2022/05/21 04:14:49;;;;;;;2.25;1.90;;;18.40;99.90;;;;;;7389529;19;20643;-75
2022/05/21 04:17:16;;;;;;;1.75;1.60;;;18.50;99.90;;;;;;7388899;19;20139;-80
2022/05/21 04:19:42;;;;;;;3.25;1.67;;;18.50;99.90;;;;;;7390732;19;20131;-79
2022/05/21 04:22:09;;;;;;;2.40;1.70;;;18.50;99.90;;;;;;7389774;19;20147;-74
2022/05/21 04:24:35;;;;;;;3.50;1.83;;;18.40;99.90;;;;;;7387491;19;20510;-75
2022/05/21 04:27:01;;;;;;;2.38;1.63;;;18.40;99.90;;;;;;7390886;19;20169;-75
2022/05/21 04:29:28;;;;;;;2.63;1.30;;;18.20;99.90;;;;;;7392699;19;20143;-78
2022/05/21 04:31:54;;;;;;;2.03;1.80;;;18.20;99.90;;;;;;7390253;19;20146;-73
2022/05/21 04:34:20;;;;;;;1.70;1.60;;;18.30;99.90;;;;;;7387807;19;20150;-75
2022/05/21 04:36:46;;;;;;;3.15;1.80;;;18.40;99.90;;;;;;7388621;19;20151;-74
2022/05/21 04:39:11;;;;;;;5.18;1.55;;;18.30;99.90;;;;;;7388611;19;20566;-79
2022/05/21 04:41:37;;;;;;;1.33;1.23;;;18.30;99.90;;;;;;7388802;19;20194;-79
2022/05/21 04:44:04;;;;;;;1.85;1.60;;;18.20;99.90;;;;;;7390415;19;20173;-78
2022/05/21 04:46:31;;;;;;;2.80;1.40;;;18.20;99.90;;;;;;7394178;19;20159;-74
2022/05/21 04:48:57;;;;;;;1.90;1.70;;;18.20;99.90;;;;;;7388797;19;20150;-80
2022/05/21 04:51:22;;;;;;;2.03;1.70;;;18.30;99.90;;;;;;7387991;19;20149;-80
2022/05/21 04:53:48;;;;;;;2.30;1.42;;;18.40;99.90;;;;;;7390105;19;20123;-75
2022/05/21 04:56:14;;;;;;;3.65;1.23;;;18.30;99.90;;;;;;7387194;19;20122;-79
2022/05/21 04:58:40;;;;;;;1.60;1.38;;;18.00;99.90;;;;;;7387740;19;20151;-78
2022/05/21 05:01:06;;;;;;;1.73;1.20;;;17.90;99.90;;;;;;7392468;19;20139;-74
2022/05/21 05:03:33;;;;;;;2.25;1.50;;;18.00;99.90;;;;;;7386946;19;20143;-77
2022/05/21 05:06:00;;;;;;;1.85;1.17;;;18.10;99.90;;;;;;7387716;19;20503;-75
2022/05/21 05:08:27;;;;;;;2.95;1.70;;;18.10;99.90;;;;;;7386901;19;20466;-75
2022/05/21 05:10:52;;;;;;;1.35;1.23;;;17.90;99.90;;;;;;7387506;19;20254;-74
2022/05/21 05:13:18;;;;;;;1.42;1.17;;;17.80;99.90;;;;;;7387554;19;20645;-74
2022/05/21 05:15:45;;;;;;;3.08;0.98;;;18.10;99.90;;;;;;7389020;19;20126;-77
2022/05/21 05:18:13;;;;;;;2.13;1.33;;;18.20;99.90;;;;;;7389088;19;20190;-78
2022/05/21 05:20:39;;;;;;;3.38;1.20;;;18.40;99.90;;;;;;7387181;19;20127;-78
2022/05/21 05:23:05;;;;;;;1.85;1.20;;;18.30;99.90;;;;;;7386860;19;20152;-74
2022/05/21 05:25:32;;;;;;;1.60;1.17;;;18.20;99.90;;;;;;7387730;19;20127;-74
2022/05/21 05:28:00;;;;;;;2.55;1.20;;;18.30;99.90;;;;;;7385585;19;20130;-78
2022/05/21 05:30:26;;;;;;;2.25;1.00;;;18.30;99.90;;;;;;7388873;19;20145;-75
2022/05/21 05:32:52;;;;;;;8.68;1.48;;;18.50;99.90;;;;;;7386211;19;20152;-78
2022/05/21 05:35:19;;;;;;;3.63;1.20;;;18.60;99.90;;;;;;7391546;19;20166;-78
2022/05/21 05:37:46;;;;;;;1.10;1.00;;;18.70;99.90;;;;;;7386411;19;20236;-74
2022/05/21 05:40:17;;;;;;;1.23;1.13;;;18.60;99.90;;;;;;7387209;19;20142;-79
2022/05/21 05:42:43;;;;;;;1.05;0.95;;;18.60;99.90;;;;;;7386332;19;20134;-78
2022/05/21 05:45:12;;;;;;;2.03;1.08;;;18.60;99.90;;;;;;7387813;19;20167;-75
2022/05/21 05:47:38;;;;;;;1.08;0.95;;;18.60;99.90;;;;;;7395064;19;20204;-77
2022/05/21 05:50:05;;;;;;;0.82;0.82;;;18.10;99.90;;;;;;7394250;19;20135;-80
2022/05/21 05:52:31;;;;;;;1.70;1.02;;;18.40;99.90;;;;;;7396068;19;20483;-75
2022/05/21 05:54:57;;;;;;;1.35;1.00;;;18.60;99.90;;;;;;7397389;19;20147;-74
2022/05/21 05:57:23;;;;;;;1.40;1.08;;;18.70;99.90;;;;;;7392956;19;20141;-78
2022/05/21 05:59:50;;;;;;;2.88;1.00;;;18.70;99.90;;;;;;7396225;19;20626;-78
2022/05/21 06:05:16;;;;;;;1.05;0.90;;;18.70;99.90;;;;;;7395370;19;20130;-78
2022/05/21 06:07:46;;;;;;;1.30;0.90;;;18.70;99.90;;;;;;7393974;19;20131;-75
2022/05/21 06:10:15;;;;;;;0.75;0.70;;;18.90;99.90;;;;;;7396773;19;20487;-74
2022/05/21 06:12:42;;;;;;;1.10;0.77;;;18.90;99.90;;;;;;7393822;19;20614;-78
2022/05/21 06:15:09;;;;;;;1.10;0.80;;;19.10;99.90;;;;;;7393464;19;20452;-78
2022/05/21 06:17:36;;;;;;;2.47;0.63;;;19.40;99.90;;;;;;7392092;19;20130;-74
2022/05/21 06:20:04;;;;;;;1.85;1.10;;;20.60;99.90;;;;;;7392710;19;20139;-75
2022/05/21 06:22:30;;;;;;;3.60;0.80;;;22.00;99.90;;;;;;7392994;19;20163;-74
2022/05/21 06:24:56;;;;;;;2.42;0.80;;;23.10;99.90;;;;;;7390032;19;20203;-74
2022/05/21 06:27:21;;;;;;;1.17;0.60;;;23.40;99.60;;;;;;7397414;19;20154;-77
2022/05/21 06:29:47;;;;;;;1.40;0.80;;;23.10;98.60;;;;;;7392199;19;20131;-72
2022/05/21 06:32:13;;;;;;;0.82;0.75;;;22.60;98.70;;;;;;7394587;19;20123;-81
2022/05/21 06:34:39;;;;;;;3.42;0.93;;;23.00;98.70;;;;;;7394531;19;20138;-81
2022/05/21 06:37:07;;;;;;;1.90;0.75;;;23.20;98.00;;;;;;7392788;19;20547;-73
2022/05/21 06:39:34;;;;;;;0.55;0.55;;;23.60;97.90;;;;;;7392328;19;20135;-80
2022/05/21 06:42:02;;;;;;;1.05;0.82;;;24.10;97.00;;;;;;7392676;19;20123;-78
2022/05/21 06:44:28;;;;;;;0.50;0.50;;;24.20;95.50;;;;;;7392035;19;20655;-73
2022/05/21 06:46:55;;;;;;;1.55;0.57;;;24.60;95.40;;;;;;7394498;19;20454;-72
2022/05/21 06:49:21;;;;;;;1.90;0.70;;;24.90;95.20;;;;;;7393368;19;20177;-81
2022/05/21 06:51:52;;;;;;;0.90;0.50;;;24.70;94.10;;;;;;7392282;19;20138;-80
2022/05/21 06:54:18;;;;;;;1.15;0.70;;;24.30;93.80;;;;;;7394984;19;20126;-72
2022/05/21 06:56:44;;;;;;;2.72;0.73;;;23.80;94.40;;;;;;7391147;19;20155;-73
2022/05/21 06:59:10;;;;;;;1.60;0.70;;;23.40;94.30;;;;;;7391564;19;20633;-75
2022/05/21 07:01:36;;;;;;;1.10;0.73;;;23.20;95.20;;;;;;7392003;19;20184;-76
2022/05/21 07:04:02;;;;;;;2.97;0.85;;;23.20;95.10;;;;;;7390130;19;20176;-76
2022/05/21 07:09:12;;;;;;;2.60;0.47;;;23.50;94.70;;;;;;7394263;19;20902;-79
2022/05/21 07:11:48;;;;;;;1.95;0.60;;;23.40;94.20;;;;;;7389688;19;20146;-73
2022/05/21 07:14:14;;;;;;;2.08;0.60;;;23.20;94.80;;;;;;7390805;19;20135;-74
2022/05/21 07:16:40;;;;;;;1.13;0.98;;;23.50;95.00;;;;;;7391248;19;20197;-78
2022/05/21 07:19:07;;;;;;;1.27;0.70;;;23.50;95.20;;;;;;7393577;19;20606;-77
2022/05/21 07:21:33;;;;;;;2.67;0.80;;;23.40;94.80;;;;;;7394296;19;20241;-72
2022/05/21 07:23:59;;;;;;;2.25;1.00;;;23.40;95.60;;;;;;7388720;19;20131;-74
2022/05/21 07:26:25;;;;;;;1.67;0.82;;;23.40;95.30;;;;;;7391088;19;20141;-76
2022/05/21 07:28:51;;;;;;;0.95;0.63;;;23.40;95.40;;;;;;7391357;19;20586;-70
2022/05/21 07:31:18;;;;;;;5.03;0.88;;;23.40;95.80;;;;;;7391572;19;20230;-72
2022/05/21 07:33:43;;;;;;;0.47;0.47;;;24.10;95.70;;;;;;7393693;19;20554;-77
2022/05/21 07:36:09;;;;;;;0.80;0.60;;;24.40;94.80;;;;;;7393556;19;20177;-75
2022/05/21 07:38:35;;;;;;;0.70;0.57;;;24.70;94.50;;;;;;7390262;19;20159;-77
2022/05/21 07:41:01;;;;;;;1.05;0.70;;;24.90;94.20;;;;;;7393826;19;20131;-77
2022/05/21 07:43:30;;;;;;;2.63;0.70;;;25.00;93.60;;;;;;7393731;19;20218;-71
2022/05/21 07:46:00;;;;;;;1.63;0.68;;;24.40;94.80;;;;;;7394020;19;20134;-76
2022/05/21 07:48:27;;;;;;;1.58;0.55;;;24.20;95.10;;;;;;7389425;19;20517;-72
2022/05/21 07:50:57;;;;;;;0.90;0.60;;;24.30;93.80;;;;;;7395481;19;20142;-71
2022/05/21 07:53:26;;;;;;;16.92;2.13;;;24.60;93.60;;;;;;7394426;19;20131;-70
2022/05/21 07:55:53;;;;;;;3.05;0.70;;;25.00;92.50;;;;;;7390456;19;20517;-71
2022/05/21 07:58:21;;;;;;;1.40;0.40;;;25.20;92.20;;;;;;7393890;19;20158;-76
2022/05/21 08:00:47;;;;;;;1.27;0.60;;;25.10;91.70;;;;;;7390789;19;20146;-73
2022/05/21 08:03:14;;;;;;;3.03;0.50;;;25.20;91.40;;;;;;7390757;19;20146;-70
2022/05/21 08:05:41;;;;;;;1.27;0.63;;;24.90;91.40;;;;;;7376829;19;20213;-74
2022/05/21 08:08:10;;;;;;;1.65;0.80;;;24.80;92.10;;;;;;7375776;19;20589;-77
2022/05/21 08:10:38;;;;;;;1.02;0.50;;;25.20;92.00;;;;;;7377837;19;20131;-78
2022/05/21 08:13:06;;;;;;;2.30;0.40;;;25.10;91.40;;;;;;7384105;19;20139;-70
2022/05/21 08:15:32;;;;;;;2.67;0.60;;;25.10;91.20;;;;;;7387540;19;20154;-77
2022/05/21 08:17:59;;;;;;;1.10;0.50;;;25.00;90.80;;;;;;7389076;19;20820;-79
2022/05/21 08:20:25;;;;;;;0.50;0.30;;;24.90;91.20;;;;;;7388074;19;20134;-79
2022/05/21 08:28:19;;;;;;;0.85;0.50;;;24.80;91.40;;;;;;7389914;19;20170;-79
2022/05/21 08:30:47;;;;;;;0.50;0.40;;;24.30;91.00;;;;;;7388295;19;20147;-73
2022/05/21 08:33:14;;;;;;;0.52;0.50;;;24.40;91.30;;;;;;7389251;19;20154;-79
2022/05/21 08:35:41;;;;;;;1.02;0.40;;;24.70;91.20;;;;;;7389194;19;20193;-80
2022/05/21 08:38:08;;;;;;;0.75;0.60;;;24.20;90.80;;;;;;7389793;19;20142;-77
2022/05/21 08:40:49;;;;;;;1.25;0.65;;;23.70;91.50;;;;;;7390030;19;20163;-74
2022/05/21 08:43:35;;;;;;;1.27;0.50;;;23.10;92.00;;;;;;7389826;19;20142;-74
2022/05/21 08:46:15;;;;;;;2.33;0.60;;;22.60;92.80;;;;;;7388702;19;20150;-78
2022/05/21 08:49:05;;;;;;;0.77;0.50;;;22.60;93.00;;;;;;7389242;19;20136;-71
2022/05/21 08:51:41;;;;;;;1.25;0.50;;;22.80;93.90;;;;;;7384370;19;21051;-73
2022/05/21 08:54:07;;;;;;;1.40;0.50;;;23.30;92.30;;;;;;7385503;19;20455;-71
2022/05/21 08:56:35;;;;;;;0.52;0.40;;;23.60;91.90;;;;;;7381409;19;20631;-76
2022/05/21 08:59:11;;;;;;;0.30;0.30;;;23.60;91.70;;;;;;7382241;19;20137;-79
2022/05/21 09:01:40;;;;;;;0.40;0.40;;;23.20;92.40;;;;;;7395266;19;20130;-73
2022/05/21 09:04:08;;;;;;;0.57;0.50;;;23.20;92.20;;;;;;7379936;19;20158;-75
2022/05/21 09:06:52;;;;;;;1.15;0.73;;;23.00;92.10;;;;;;7382040;19;20134;-72
2022/05/21 09:09:30;;;;;;;0.75;0.43;;;22.70;92.40;;;;;;7386576;19;20135;-70
2022/05/21 09:12:15;;;;;;;0.30;0.30;;;22.50;93.00;;;;;;7386924;19;20153;-75
2022/05/21 09:14:43;;;;;;;0.50;0.40;;;22.20;93.20;;;;;;7392334;19;20210;-73
2022/05/21 09:17:16;;;;;;;0.43;0.43;;;22.20;93.50;;;;;;7384617;19;20182;-71
2022/05/21 09:19:50;;;;;;;0.57;0.43;;;22.20;94.20;;;;;;7387966;19;20142;-71
2022/05/21 09:22:19;;;;;;;0.85;0.50;;;22.10;93.80;;;;;;7391898;19;20145;-71
2022/05/21 09:24:49;;;;;;;1.08;0.50;;;22.20;94.20;;;;;;7393795;19;20155;-74
2022/05/21 09:27:42;;;;;;;1.10;0.65;;;22.10;94.30;;;;;;7395775;19;20140;-71
2022/05/21 09:30:23;;;;;;;1.13;0.60;;;22.10;94.90;;;;;;7396025;19;20423;-71
2022/05/21 09:32:56;;;;;;;0.63;0.50;;;22.80;94.70;;;;;;7398104;19;20597;-71
2022/05/21 09:35:23;;;;;;;1.30;0.40;;;23.00;93.80;;;;;;7397924;19;20202;-69
2022/05/21 09:37:50;;;;;;;1.38;0.55;;;22.90;93.80;;;;;;7395916;19;20134;-71
2022/05/21 09:40:34;;;;;;;1.10;0.40;;;22.80;94.20;;;;;;7395888;19;20138;-75
2022/05/21 09:46:21;;;;;;;1.38;0.52;;;23.00;94.10;;;;;;7396109;19;20155;-70
2022/05/21 09:48:48;;;;;;;1.00;0.50;;;23.20;94.30;;;;;;7395449;19;20126;-71
2022/05/21 09:51:40;;;;;;;1.67;0.55;;;23.30;93.60;;;;;;7399895;19;20131;-71
2022/05/21 09:54:25;;;;;;;0.65;0.40;;;23.20;93.50;;;;;;7395820;19;20146;-74
2022/05/21 09:56:53;;;;;;;0.70;0.52;;;22.90;93.40;;;;;;7393869;19;20154;-75
2022/05/21 09:59:25;;;;;;;1.20;0.50;;;22.50;94.40;;;;;;7393047;19;20202;-74
2022/05/21 10:01:55;;;;;;;0.57;0.52;;;22.30;94.60;;;;;;7395622;19;20177;-76
2022/05/21 10:04:33;;;;;;;2.53;0.57;;;22.30;94.80;;;;;;7393030;19;20172;-74
2022/05/21 10:10:58;;;;;;;0.35;0.35;;;22.40;95.00;;;;;;7397284;19;20126;-75
2022/05/21 10:12:54;;;;;;;0.60;0.40;;;22.70;94.60;;;;;;7395327;19;20139;-75
2022/05/21 10:15:26;;;;;;;1.42;0.50;;;22.60;94.30;;;;;;7394370;19;20637;-74
2022/05/21 10:18:32;;;;;;;2.35;0.55;;;22.50;94.00;;;;;;7395947;19;20578;-69
2022/05/21 10:21:16;;;;;;;3.45;0.45;;;22.20;94.50;;;;;;7393489;19;20161;-70
2022/05/21 10:24:12;;;;;;;0.60;0.47;;;22.20;95.00;;;;;;7392026;19;20131;-75
2022/05/21 10:26:57;;;;;;;0.85;0.50;;;22.30;95.10;;;;;;7393292;19;20229;-70
2022/05/21 10:29:56;;;;;;;0.93;0.60;;;22.30;95.20;;;;;;7395724;19;20151;-75
2022/05/21 10:32:40;;;;;;;0.80;0.60;;;22.20;95.20;;;;;;7392139;19;20134;-74
2022/05/21 10:35:24;;;;;;;0.50;0.50;;;22.20;95.10;;;;;;7392816;19;20134;-74
2022/05/21 10:37:59;;;;;;;1.90;0.57;;;22.50;95.80;;;;;;7396315;19;20175;-74
2022/05/21 10:40:43;;;;;;;0.80;0.52;;;22.80;94.70;;;;;;7395740;19;20138;-70
2022/05/21 10:43:30;;;;;;;1.25;0.60;;;22.90;94.40;;;;;;7395615;19;20150;-75
2022/05/21 10:46:06;;;;;;;1.42;0.63;;;22.90;94.70;;;;;;7394780;19;20437;-72
2022/05/21 10:48:57;;;;;;;0.98;0.70;;;22.80;94.80;;;;;;7392786;19;20161;-71
2022/05/21 10:51:41;;;;;;;1.98;0.63;;;23.00;94.80;;;;;;7393744;19;20134;-71
2022/05/21 10:54:23;;;;;;;0.80;0.50;;;22.90;94.50;;;;;;7391486;19;20600;-71
2022/05/21 10:57:04;;;;;;;3.53;0.80;;;22.70;94.90;;;;;;7393435;19;20134;-70
2022/05/21 11:00:05;;;;;;;0.98;0.43;;;22.80;95.00;;;;;;7393647;19;20144;-75
2022/05/21 11:02:49;;;;;;;0.65;0.57;;;22.80;94.80;;;;;;7393934;19;20146;-71
2022/05/21 11:05:42;;;;;;;0.30;0.30;;;22.60;94.60;;;;;;7392970;19;20498;-71
2022/05/21 11:08:08;;;;;;;0.85;0.43;;;22.50;94.80;;;;;;7390850;19;20134;-70
2022/05/21 11:10:53;;;;;;;2.78;0.70;;;22.50;94.80;;;;;;7391123;19;20461;-75
2022/05/21 11:13:35;;;;;;;1.52;0.70;;;22.50;95.10;;;;;;7391526;19;20661;-70
2022/05/21 11:16:06;;;;;;;2.53;0.52;;;22.80;95.20;;;;;;7397408;19;20150;-76
2022/05/21 11:18:48;;;;;;;1.35;0.68;;;23.20;95.20;;;;;;7393833;19;20554;-76
2022/05/21 11:21:17;;;;;;;1.35;0.43;;;23.60;94.40;;;;;;7390624;19;20135;-74
2022/05/21 11:23:49;;;;;;;0.63;0.60;;;23.70;93.60;;;;;;7390529;19;20483;-70
2022/05/21 11:26:28;;;;;;;1.75;0.50;;;23.30;93.40;;;;;;7389625;19;20138;-70
2022/05/21 11:29:13;;;;;;;0.63;0.60;;;23.00;93.30;;;;;;7391322;19;20175;-74
2022/05/21 11:37:26;;;;;;;0.95;0.60;;;23.30;93.90;;;;;;7393707;19;20146;-70
2022/05/21 11:39:55;;;;;;;2.03;1.13;;;23.40;93.80;;;;;;7393378;19;20131;-75
2022/05/21 11:42:27;;;;;;;1.95;0.70;;;23.60;93.20;;;;;;7393591;19;20134;-75
2022/05/21 11:44:59;;;;;;;2.05;0.80;;;23.60;93.00;;;;;;7390881;19;20547;-75
2022/05/21 11:47:46;;;;;;;0.77;0.60;;;23.40;93.60;;;;;;7392845;19;20131;-75
2022/05/21 11:50:17;;;;;;;1.10;0.55;;;23.60;94.10;;;;;;7394601;19;20167;-70
2022/05/21 11:52:52;;;;;;;0.75;0.40;;;23.60;92.70;;;;;;7394360;19;20206;-74
2022/05/21 11:55:22;;;;;;;3.75;0.75;;;23.60;92.90;;;;;;7395106;19;20126;-70
2022/05/21 11:57:50;;;;;;;1.65;0.93;;;23.50;93.10;;;;;;7396613;19;20131;-74
2022/05/21 12:00:19;;;;;;;1.38;0.80;;;23.50;92.80;;;;;;7388670;19;20596;-71
2022/05/21 12:02:53;;;;;;;1.65;0.50;;;23.40;92.70;;;;;;7396486;19;20131;-74
2022/05/21 12:05:41;;;;;;;2.05;0.63;;;23.40;92.80;;;;;;7392613;19;20150;-73
2022/05/21 12:08:22;;;;;;;2.35;0.65;;;23.40;92.90;;;;;;7395340;19;20150;-70
2022/05/21 12:11:11;;;;;;;2.28;0.80;;;23.40;92.80;;;;;;7393605;19;20636;-73
2022/05/21 12:13:40;;;;;;;3.20;1.13;;;23.50;92.60;;;;;;7390708;19;20193;-73
2022/05/21 12:16:15;;;;;;;1.45;1.13;;;23.60;92.20;;;;;;7391764;19;20163;-73
2022/05/21 12:18:46;;;;;;;2.08;1.10;;;23.80;93.00;;;;;;7389978;19;20134;-77
2022/05/21 12:21:28;;;;;;;1.67;1.00;;;24.10;91.60;;;;;;7391302;19;20154;-75
2022/05/21 12:23:56;;;;;;;0.98;0.50;;;24.20;91.60;;;;;;7392390;19;20138;-75
2022/05/21 12:26:27;;;;;;;2.38;0.70;;;24.00;91.40;;;;;;7390526;19;20161;-73
2022/05/21 12:28:55;;;;;;;3.00;1.05;;;23.80;91.80;;;;;;7391541;19;20165;-74
2022/05/21 12:31:28;;;;;;;1.40;0.70;;;23.80;92.00;;;;;;7391137;19;20154;-75
2022/05/21 12:34:12;;;;;;;1.60;1.10;;;24.00;91.80;;;;;;7389432;19;20153;-71
2022/05/21 12:37:03;;;;;;;2.22;1.00;;;24.00;91.20;;;;;;7390217;19;20142;-78
2022/05/21 12:40:01;;;;;;;2.15;0.80;;;23.90;91.30;;;;;;7390135;19;20162;-71
2022/05/21 12:42:40;;;;;;;0.85;0.60;;;24.00;91.20;;;;;;7387164;19;20175;-77
2022/05/21 12:45:08;;;;;;;0.70;0.50;;;24.10;91.30;;;;;;7394636;19;20195;-76
2022/05/21 12:47:41;;;;;;;0.95;0.70;;;24.30;91.10;;;;;;7390239;19;20147;-75
2022/05/21 12:50:14;;;;;;;1.70;0.50;;;24.40;90.40;;;;;;7392815;19;20127;-71
2022/05/21 12:52:53;;;;;;;2.03;0.63;;;24.20;90.30;;;;;;7394590;19;20166;-72
2022/05/21 12:55:32;;;;;;;2.53;0.70;;;24.20;90.10;;;;;;7395628;19;20213;-72
2022/05/21 12:58:07;;;;;;;2.67;0.63;;;24.00;90.30;;;;;;7393556;19;20145;-72
2022/05/21 13:00:34;;;;;;;1.00;0.65;;;24.10;90.80;;;;;;7391970;19;20205;-75
2022/05/21 13:03:10;;;;;;;0.82;0.55;;;24.10;90.40;;;;;;7387740;19;20524;-78
2022/05/21 13:06:00;;;;;;;0.60;0.50;;;24.10;90.40;;;;;;7387700;19;20134;-79
2022/05/21 13:08:28;;;;;;;1.95;0.95;;;24.20;90.70;;;;;;7394412;19;20139;-75
2022/05/21 13:11:19;;;;;;;1.63;0.63;;;24.10;90.50;;;;;;7398982;19;20258;-83
2022/05/21 13:13:57;;;;;;;1.58;0.60;;;24.20;90.20;;;;;;7390965;19;20161;-80
2022/05/21 13:16:23;;;;;;;1.08;0.80;;;24.30;89.40;;;;;;7391020;19;20213;-76
2022/05/21 13:19:19;;;;;;;0.77;0.60;;;24.20;89.20;;;;;;7390697;19;20154;-76
2022/05/21 13:22:11;;;;;;;1.75;0.75;;;24.10;88.40;;;;;;7394022;19;20231;-75
2022/05/21 13:24:53;;;;;;;3.40;1.05;;;24.10;89.40;;;;;;7385532;19;20497;-76
2022/05/21 13:27:21;;;;;;;2.53;0.82;;;24.20;87.70;;;;;;7386770;19;20138;-78
2022/05/21 13:29:51;;;;;;;3.03;0.70;;;24.10;88.10;;;;;;7390057;19;20626;-78
2022/05/21 13:32:27;;;;;;;2.72;0.70;;;24.10;89.20;;;;;;7387683;19;20170;-75
2022/05/21 13:34:59;;;;;;;4.43;0.82;;;24.10;89.60;;;;;;7390103;19;20226;-81
2022/05/21 13:37:39;;;;;;;2.45;1.00;;;24.10;89.10;;;;;;7387229;19;20480;-76